Time;durP1;ratioP1;P1;durP2;ratioP2;P2;SDS_P1;SDS_P2;PMS_P1;PMS_P2;Temp;Humidity;BMP_temperature;BMP_pressure;BME280_temperature;BME280_humidity;BME280_pressure;Samples;Min_cycle;Max_cycle;Signal;HPM_P1;HPM_P2
2022/10/06 00:00:52;;;;;;;4.63;1.80;;;18.50;98.50;;;;;;5049308;28;20120;-72
2022/10/06 00:03:21;;;;;;;3.65;1.90;;;18.50;98.50;;;;;;5049212;28;20033;-72
2022/10/06 00:05:50;;;;;;;5.60;1.70;;;18.40;98.60;;;;;;5050346;28;20443;-72
2022/10/06 00:08:17;;;;;;;3.22;1.63;;;18.40;98.60;;;;;;5053439;28;20040;-71
2022/10/06 00:10:43;;;;;;;3.35;1.73;;;18.50;98.60;;;;;;5054383;28;20090;-71
2022/10/06 00:13:09;;;;;;;2.67;1.63;;;18.50;98.70;;;;;;5054104;28;20497;-72
2022/10/06 00:15:35;;;;;;;4.72;1.73;;;18.50;98.60;;;;;;5069536;28;20041;-71
2022/10/06 00:18:01;;;;;;;5.68;1.70;;;18.50;98.60;;;;;;5052949;28;20037;-72
2022/10/06 00:20:28;;;;;;;4.32;1.58;;;18.50;98.80;;;;;;5054057;28;20146;-72
2022/10/06 00:22:55;;;;;;;4.55;1.70;;;18.40;99.10;;;;;;5054759;28;20024;-71
2022/10/06 00:25:24;;;;;;;1.98;1.23;;;18.40;99.40;;;;;;5054029;28;20105;-71
2022/10/06 00:27:51;;;;;;;3.22;1.02;;;18.20;99.00;;;;;;5053868;28;20117;-72
2022/10/06 00:30:19;;;;;;;2.70;0.60;;;17.70;99.00;;;;;;5052907;28;20105;-72
2022/10/06 00:32:54;;;;;;;1.85;0.40;;;17.50;99.30;;;;;;5053791;28;20048;-71
2022/10/06 00:35:21;;;;;;;2.65;0.55;;;17.30;99.70;;;;;;5054016;28;20029;-72
2022/10/06 00:37:46;;;;;;;4.30;0.70;;;17.10;99.90;;;;;;5054236;28;20040;-73
2022/10/06 00:40:12;;;;;;;3.30;0.75;;;17.00;99.90;;;;;;5053807;28;20037;-72
2022/10/06 00:42:55;;;;;;;2.00;0.60;;;16.90;99.90;;;;;;5053611;28;20025;-71
2022/10/06 00:45:31;;;;;;;2.92;0.63;;;16.60;99.90;;;;;;5053717;28;20033;-71
2022/10/06 00:48:03;;;;;;;1.55;0.45;;;16.30;99.90;;;;;;5052270;28;20120;-72
2022/10/06 00:50:29;;;;;;;1.58;0.45;;;16.30;99.90;;;;;;5053473;28;20271;-73
2022/10/06 00:52:55;;;;;;;2.00;0.40;;;16.30;99.90;;;;;;5086366;28;20115;-73
2022/10/06 00:55:22;;;;;;;2.38;0.60;;;16.10;99.90;;;;;;5053926;28;20128;-72
2022/10/06 00:57:51;;;;;;;0.82;0.45;;;16.20;99.90;;;;;;5053582;28;20055;-73
2022/10/06 01:00:17;;;;;;;1.35;0.40;;;16.20;99.90;;;;;;5053341;28;20075;-72
2022/10/06 01:02:55;;;;;;;1.67;0.50;;;16.10;99.90;;;;;;5053268;28;20029;-73
2022/10/06 01:05:34;;;;;;;2.85;0.60;;;16.20;99.90;;;;;;5053567;28;20036;-72
2022/10/06 01:08:00;;;;;;;1.50;0.40;;;16.20;99.90;;;;;;5053582;28;20511;-73
2022/10/06 01:10:26;;;;;;;3.42;0.57;;;16.20;99.90;;;;;;5052985;28;20029;-72
2022/10/06 01:12:52;;;;;;;1.77;0.47;;;16.30;99.90;;;;;;5053033;28;20044;-72
2022/10/06 01:15:20;;;;;;;1.98;0.50;;;16.40;99.90;;;;;;5052970;28;20040;-72
2022/10/06 01:18:12;;;;;;;0.73;0.47;;;16.30;99.90;;;;;;5052934;28;20518;-72
2022/10/06 01:20:50;;;;;;;1.63;0.55;;;16.40;99.90;;;;;;5052391;28;20137;-73
2022/10/06 01:23:16;;;;;;;0.75;0.40;;;16.30;99.90;;;;;;5052028;28;20025;-72
2022/10/06 01:25:43;;;;;;;2.38;0.40;;;16.30;99.90;;;;;;5052876;28;20025;-72
2022/10/06 01:28:10;;;;;;;0.93;0.32;;;16.30;99.90;;;;;;5053199;28;20044;-72
2022/10/06 01:30:52;;;;;;;0.60;0.30;;;16.20;99.90;;;;;;5052849;28;20112;-73
2022/10/06 01:33:19;;;;;;;1.35;0.25;;;16.00;99.90;;;;;;5051617;28;20120;-72
2022/10/06 01:35:48;;;;;;;1.13;0.30;;;15.80;99.90;;;;;;5044591;28;20064;-73
2022/10/06 01:38:15;;;;;;;0.43;0.32;;;15.80;99.90;;;;;;5033150;28;20017;-73
2022/10/06 01:40:41;;;;;;;0.88;0.35;;;16.00;99.90;;;;;;5032605;28;20083;-72
2022/10/06 01:43:07;;;;;;;1.45;0.68;;;15.80;99.90;;;;;;5032597;28;20071;-72
2022/10/06 01:45:33;;;;;;;1.48;0.90;;;15.80;99.90;;;;;;5032641;28;20372;-73
2022/10/06 01:47:59;;;;;;;1.73;0.60;;;15.80;99.90;;;;;;5032390;28;20379;-72
2022/10/06 01:50:24;;;;;;;3.78;0.70;;;15.70;99.90;;;;;;5031320;28;20393;-71
2022/10/06 01:52:50;;;;;;;2.60;0.55;;;15.80;99.90;;;;;;5032821;28;20113;-71
2022/10/06 01:55:16;;;;;;;1.80;0.52;;;15.80;99.90;;;;;;5032300;28;20060;-73
2022/10/06 01:57:42;;;;;;;0.75;0.30;;;15.80;99.90;;;;;;5032334;28;20025;-72
2022/10/06 02:00:09;;;;;;;1.85;0.30;;;15.90;99.90;;;;;;5031185;28;20489;-71
2022/10/06 02:02:35;;;;;;;1.55;0.40;;;15.80;99.90;;;;;;5032326;28;20507;-72
2022/10/06 02:05:01;;;;;;;0.90;0.13;;;15.90;99.90;;;;;;5032695;28;20025;-72
2022/10/06 02:07:27;;;;;;;3.03;0.43;;;15.90;99.90;;;;;;5032198;28;20029;-72
2022/10/06 02:09:53;;;;;;;1.38;0.80;;;15.90;99.90;;;;;;5030980;28;20034;-73
2022/10/06 02:12:18;;;;;;;1.98;0.10;;;16.00;99.90;;;;;;5032049;28;20045;-73
2022/10/06 02:14:44;;;;;;;5.88;1.85;;;15.90;99.90;;;;;;5031631;28;20045;-73
2022/10/06 02:17:10;;;;;;;3.40;0.60;;;16.00;99.90;;;;;;5032593;28;20085;-72
2022/10/06 02:19:35;;;;;;;3.53;0.40;;;15.80;99.90;;;;;;5031910;28;20037;-73
2022/10/06 02:22:01;;;;;;;3.10;0.60;;;15.90;99.90;;;;;;5031915;28;20086;-73
2022/10/06 02:24:27;;;;;;;0.88;0.38;;;16.00;99.90;;;;;;5031793;28;20502;-73
2022/10/06 02:26:53;;;;;;;2.55;0.40;;;15.90;99.90;;;;;;5030560;28;20157;-72
2022/10/06 02:29:19;;;;;;;1.35;0.32;;;15.90;99.90;;;;;;5030497;28;20052;-72
2022/10/06 02:31:45;;;;;;;1.23;0.45;;;16.00;99.90;;;;;;5032300;28;20029;-72
2022/10/06 02:34:11;;;;;;;3.00;0.45;;;15.90;99.90;;;;;;5031781;28;20037;-72
2022/10/06 02:36:36;;;;;;;0.63;0.30;;;15.90;99.90;;;;;;5030426;28;20044;-73
2022/10/06 02:39:03;;;;;;;2.47;0.40;;;15.90;99.90;;;;;;5030440;28;20073;-73
2022/10/06 02:41:29;;;;;;;1.17;0.30;;;15.80;99.80;;;;;;5031479;28;20355;-73
2022/10/06 02:43:55;;;;;;;2.90;0.80;;;15.80;99.90;;;;;;5031898;28;20029;-72
2022/10/06 02:46:22;;;;;;;3.30;0.77;;;15.60;99.90;;;;;;5031364;28;20029;-72
2022/10/06 02:48:50;;;;;;;1.27;0.43;;;15.60;99.90;;;;;;5030341;28;20473;-73
2022/10/06 02:51:17;;;;;;;4.38;1.20;;;15.60;99.90;;;;;;5031534;28;20117;-73
2022/10/06 02:53:45;;;;;;;2.22;0.73;;;15.60;99.90;;;;;;5031311;28;20523;-72
2022/10/06 02:56:14;;;;;;;2.00;0.30;;;15.50;99.90;;;;;;5032351;28;20116;-72
2022/10/06 02:58:44;;;;;;;2.22;0.88;;;15.40;99.90;;;;;;5030251;28;20037;-73
2022/10/06 03:01:19;;;;;;;5.03;1.00;;;15.50;99.90;;;;;;5031253;28;20351;-72
2022/10/06 03:03:45;;;;;;;4.65;0.88;;;15.40;99.90;;;;;;5031164;28;20088;-72
2022/10/06 03:06:21;;;;;;;6.90;0.70;;;15.40;99.90;;;;;;5031021;28;20531;-72
2022/10/06 03:08:51;;;;;;;2.50;0.57;;;15.30;99.90;;;;;;5031006;28;20029;-72
2022/10/06 03:11:18;;;;;;;4.15;0.68;;;15.30;99.90;;;;;;5031450;28;20124;-71
2022/10/06 03:13:48;;;;;;;6.83;1.40;;;15.40;99.90;;;;;;5030884;28;20056;-71
2022/10/06 03:16:23;;;;;;;3.13;0.68;;;15.40;99.90;;;;;;5031029;28;20034;-72
2022/10/06 03:18:50;;;;;;;6.05;0.93;;;15.30;99.90;;;;;;5030832;28;20030;-72
2022/10/06 03:21:18;;;;;;;4.65;1.10;;;15.40;99.90;;;;;;5030745;28;20033;-70
2022/10/06 03:23:44;;;;;;;2.40;0.57;;;15.30;99.90;;;;;;5030953;28;20091;-71
2022/10/06 03:26:11;;;;;;;8.18;1.23;;;15.30;99.90;;;;;;5031182;28;20790;-70
2022/10/06 03:28:38;;;;;;;3.85;0.85;;;15.40;99.90;;;;;;5030641;28;20021;-71
2022/10/06 03:31:05;;;;;;;6.30;0.98;;;15.40;99.90;;;;;;5030724;28;20036;-72
2022/10/06 03:33:31;;;;;;;14.23;2.38;;;15.40;99.90;;;;;;5030666;28;20036;-72
2022/10/06 03:36:05;;;;;;;5.18;1.15;;;15.40;99.90;;;;;;5030779;28;20026;-71
2022/10/06 03:38:31;;;;;;;6.00;0.95;;;15.40;99.90;;;;;;5030504;28;20053;-71
2022/10/06 03:41:06;;;;;;;6.03;0.93;;;15.30;99.90;;;;;;5030891;28;20020;-71
2022/10/06 03:43:33;;;;;;;9.75;1.17;;;15.30;99.90;;;;;;5030189;28;20025;-72
2022/10/06 03:46:00;;;;;;;8.32;1.17;;;15.30;99.90;;;;;;5030235;28;20121;-73
2022/10/06 03:48:27;;;;;;;6.78;1.08;;;15.30;99.90;;;;;;5030446;28;20047;-72
2022/10/06 03:50:58;;;;;;;4.67;0.90;;;15.40;99.90;;;;;;5030835;28;20129;-71
2022/10/06 03:53:26;;;;;;;5.97;1.20;;;15.20;99.90;;;;;;5030458;28;20259;-73
2022/10/06 03:56:20;;;;;;;5.13;0.82;;;15.30;99.90;;;;;;5030817;28;20443;-72
2022/10/06 03:58:50;;;;;;;5.68;0.95;;;15.30;99.90;;;;;;5028219;28;20634;-73
2022/10/06 04:01:22;;;;;;;9.07;1.15;;;15.40;99.90;;;;;;5029343;28;20344;-73
2022/10/06 04:03:48;;;;;;;7.43;1.35;;;15.30;99.90;;;;;;5030306;28;20033;-73
2022/10/06 04:06:17;;;;;;;6.05;0.93;;;15.30;99.90;;;;;;5030336;28;20133;-73
2022/10/06 04:08:43;;;;;;;5.55;1.00;;;15.20;99.90;;;;;;5030328;28;20103;-73
2022/10/06 04:11:21;;;;;;;8.07;1.00;;;15.20;99.90;;;;;;5030742;28;20033;-73
2022/10/06 04:13:51;;;;;;;12.35;1.70;;;15.20;99.90;;;;;;5010522;28;20083;-73
2022/10/06 04:16:25;;;;;;;4.78;1.20;;;15.10;99.90;;;;;;5025382;28;20105;-74
2022/10/06 04:18:57;;;;;;;7.75;1.00;;;15.20;99.90;;;;;;5062402;28;20030;-73
2022/10/06 04:21:24;;;;;;;7.85;1.25;;;15.30;99.90;;;;;;5062213;28;20276;-74
2022/10/06 04:23:55;;;;;;;7.35;1.00;;;15.30;99.90;;;;;;5030474;28;20033;-74
2022/10/06 04:26:23;;;;;;;5.28;0.90;;;15.40;99.90;;;;;;5029595;28;20033;-73
2022/10/06 04:28:49;;;;;;;6.93;1.33;;;15.30;99.90;;;;;;5011403;28;20113;-73
2022/10/06 04:31:18;;;;;;;6.32;1.30;;;15.20;99.90;;;;;;5010399;28;20054;-73
2022/10/06 04:33:45;;;;;;;8.32;1.48;;;15.30;99.90;;;;;;5010283;28;20030;-73
2022/10/06 04:36:37;;;;;;;8.57;2.13;;;15.30;99.90;;;;;;5009189;28;20034;-72
2022/10/06 04:39:04;;;;;;;7.25;1.20;;;15.30;99.90;;;;;;5010369;28;20021;-73
2022/10/06 04:41:36;;;;;;;10.95;1.55;;;15.30;99.90;;;;;;5010427;28;20061;-73
2022/10/06 04:44:03;;;;;;;9.43;1.10;;;15.30;99.90;;;;;;5010558;28;20632;-73
2022/10/06 04:46:30;;;;;;;14.48;1.63;;;15.30;99.90;;;;;;5010053;28;20026;-72
2022/10/06 04:48:56;;;;;;;9.18;1.73;;;15.30;99.90;;;;;;5010373;28;20037;-72
2022/10/06 04:51:24;;;;;;;9.65;1.63;;;15.20;99.90;;;;;;5010355;28;20038;-73
2022/10/06 04:53:50;;;;;;;8.27;2.00;;;15.20;99.90;;;;;;5010539;28;20040;-72
2022/10/06 04:56:23;;;;;;;9.55;1.50;;;15.20;99.90;;;;;;5014124;28;20030;-72
2022/10/06 04:58:50;;;;;;;13.43;2.08;;;15.20;99.90;;;;;;5032248;28;20418;-73
2022/10/06 05:01:31;;;;;;;7.25;1.65;;;15.20;99.90;;;;;;5033099;28;20040;-73
2022/10/06 05:03:58;;;;;;;14.05;2.50;;;15.30;99.90;;;;;;5033214;28;20475;-72
2022/10/06 05:06:41;;;;;;;5.82;1.60;;;15.20;99.90;;;;;;5033228;28;20038;-73
2022/10/06 05:09:09;;;;;;;9.68;1.95;;;15.10;99.90;;;;;;5033632;28;20037;-73
2022/10/06 05:11:35;;;;;;;6.22;1.40;;;15.10;99.90;;;;;;5033145;28;20479;-73
2022/10/06 05:14:01;;;;;;;11.13;1.85;;;15.10;99.90;;;;;;5031970;28;20302;-73
2022/10/06 05:16:28;;;;;;;9.25;1.27;;;15.20;99.90;;;;;;5031826;28;20123;-71
2022/10/06 05:18:54;;;;;;;16.80;1.98;;;15.20;99.90;;;;;;5032741;28;20033;-72
2022/10/06 05:21:23;;;;;;;13.85;2.22;;;15.20;99.90;;;;;;5032864;28;20129;-73
2022/10/06 05:23:49;;;;;;;7.18;1.35;;;15.20;99.90;;;;;;5032697;28;20478;-72
2022/10/06 05:26:17;;;;;;;7.55;1.83;;;15.20;99.90;;;;;;5031940;28;20353;-73
2022/10/06 05:28:43;;;;;;;9.43;2.00;;;15.20;99.90;;;;;;5032759;28;20036;-73
2022/10/06 05:31:14;;;;;;;9.52;2.17;;;15.30;99.90;;;;;;5032626;28;20171;-72
2022/10/06 05:33:40;;;;;;;14.00;2.22;;;15.20;99.80;;;;;;5032473;28;20029;-72
2022/10/06 05:36:17;;;;;;;8.98;1.33;;;15.20;99.90;;;;;;5034037;28;20049;-72
2022/10/06 05:38:43;;;;;;;9.15;1.95;;;15.20;99.90;;;;;;5052795;28;20118;-72
2022/10/06 05:41:10;;;;;;;15.27;2.17;;;15.30;99.90;;;;;;5053066;28;20048;-73
2022/10/06 05:43:37;;;;;;;5.57;1.25;;;15.30;99.80;;;;;;5052623;28;20025;-72
2022/10/06 05:46:05;;;;;;;7.38;1.33;;;15.30;99.80;;;;;;5052492;28;20479;-75
2022/10/06 05:48:31;;;;;;;;;;;15.30;99.80;;;;;;5052763;28;20041;-72
2022/10/06 05:51:08;;;;;;;5.10;1.30;;;15.30;99.90;;;;;;5052468;28;19916;-73
2022/10/06 05:53:35;;;;;;;13.52;1.35;;;15.10;99.90;;;;;;5051446;28;20336;-72
2022/10/06 05:56:08;;;;;;;7.88;2.30;;;15.10;99.90;;;;;;5052841;28;20025;-72
2022/10/06 05:58:36;;;;;;;12.77;1.80;;;15.00;99.90;;;;;;5052241;28;20040;-71
2022/10/06 06:01:19;;;;;;;13.70;1.40;;;15.10;99.90;;;;;;5052271;28;20101;-72
2022/10/06 06:03:49;;;;;;;12.68;1.58;;;15.20;99.90;;;;;;5051089;28;20044;-71
2022/10/06 06:06:27;;;;;;;8.98;1.40;;;15.20;99.90;;;;;;5051917;28;20490;-72
2022/10/06 06:08:56;;;;;;;11.48;1.50;;;15.10;99.90;;;;;;5052141;28;20061;-72
2022/10/06 06:11:25;;;;;;;17.08;2.65;;;15.10;99.90;;;;;;5052077;28;20430;-72
2022/10/06 06:14:04;;;;;;;9.02;1.42;;;15.10;99.90;;;;;;5051115;28;20036;-72
2022/10/06 06:16:31;;;;;;;9.00;1.30;;;15.10;99.70;;;;;;5051911;28;20045;-71
2022/10/06 06:18:58;;;;;;;9.68;1.40;;;15.10;99.70;;;;;;5050657;28;20108;-71
2022/10/06 06:21:24;;;;;;;11.73;1.67;;;15.00;99.60;;;;;;5050896;28;20048;-72
2022/10/06 06:23:51;;;;;;;7.60;1.25;;;15.10;99.60;;;;;;5052078;28;20044;-71
2022/10/06 06:26:25;;;;;;;10.25;1.98;;;15.10;99.60;;;;;;5051181;28;20025;-73
2022/10/06 06:29:01;;;;;;;14.27;1.60;;;15.10;99.50;;;;;;5051806;28;20040;-71
2022/10/06 06:31:30;;;;;;;7.80;1.48;;;15.10;99.50;;;;;;5051577;28;20379;-72
2022/10/06 06:33:57;;;;;;;13.48;2.03;;;14.90;99.40;;;;;;5051785;28;20340;-72
2022/10/06 06:36:35;;;;;;;6.40;1.20;;;15.00;99.40;;;;;;5052699;28;20436;-72
2022/10/06 06:39:04;;;;;;;10.38;1.35;;;15.00;99.30;;;;;;5052748;28;20095;-73
2022/10/06 06:41:38;;;;;;;10.77;1.73;;;15.00;99.40;;;;;;5052792;28;20101;-73
2022/10/06 06:44:07;;;;;;;11.35;1.65;;;15.10;99.30;;;;;;5052056;28;20024;-73
2022/10/06 06:46:33;;;;;;;12.00;2.08;;;15.00;99.10;;;;;;5050422;28;20036;-71
2022/10/06 06:49:04;;;;;;;12.45;2.17;;;15.00;99.00;;;;;;5051318;28;20029;-73
2022/10/06 06:51:39;;;;;;;8.50;1.70;;;15.00;98.90;;;;;;5051878;28;20040;-72
2022/10/06 06:54:05;;;;;;;8.13;1.52;;;15.10;98.90;;;;;;5052073;28;20033;-71
2022/10/06 06:56:35;;;;;;;15.50;2.40;;;15.10;98.80;;;;;;5051897;28;20036;-72
2022/10/06 06:59:07;;;;;;;11.40;1.95;;;15.10;98.60;;;;;;5050375;28;20037;-71
2022/10/06 07:01:33;;;;;;;9.38;1.63;;;15.10;98.60;;;;;;5051116;28;20470;-72
2022/10/06 07:03:59;;;;;;;16.45;1.63;;;15.00;98.40;;;;;;5051056;28;20036;-71
2022/10/06 07:06:27;;;;;;;6.97;1.63;;;15.00;98.50;;;;;;5051158;28;20036;-72
2022/10/06 07:08:53;;;;;;;12.63;2.30;;;15.00;98.40;;;;;;5050964;28;20029;-72
2022/10/06 07:11:23;;;;;;;9.38;1.83;;;15.10;98.50;;;;;;5050934;28;20098;-71
2022/10/06 07:13:54;;;;;;;10.50;1.88;;;15.10;98.40;;;;;;5050076;28;20103;-72
2022/10/06 07:25:07;;;;;;;13.95;2.03;;;15.20;98.40;;;;;;5051144;28;20299;-72
2022/10/06 07:27:42;;;;;;;11.57;2.00;;;15.00;98.20;;;;;;5050752;28;20067;-72
2022/10/06 07:30:18;;;;;;;4.75;1.08;;;15.10;98.40;;;;;;5050735;28;20077;-73
2022/10/06 07:32:44;;;;;;;14.65;2.13;;;15.20;98.30;;;;;;5051065;28;20400;-72
2022/10/06 07:35:10;;;;;;;8.35;1.80;;;15.10;98.30;;;;;;5051857;28;20020;-71
2022/10/06 07:37:36;;;;;;;17.95;2.17;;;15.10;98.30;;;;;;5050266;28;20540;-72
2022/10/06 07:40:05;;;;;;;17.42;2.22;;;15.10;98.60;;;;;;5050899;28;20116;-73
2022/10/06 07:42:46;;;;;;;14.10;2.28;;;15.10;98.30;;;;;;5049247;28;20041;-72
2022/10/06 07:48:13;;;;;;;14.93;2.00;;;15.20;98.00;;;;;;5050342;28;20080;-73
2022/10/06 07:50:39;;;;;;;14.07;1.98;;;15.30;98.00;;;;;;5049365;28;20028;-72
2022/10/06 07:53:07;;;;;;;12.25;2.10;;;15.20;98.00;;;;;;5050958;28;20031;-73
2022/10/06 07:55:35;;;;;;;9.65;2.03;;;15.30;97.90;;;;;;5050586;28;20021;-72
2022/10/06 07:58:01;;;;;;;13.02;2.00;;;15.10;97.90;;;;;;5050492;28;20064;-72
2022/10/06 08:00:26;;;;;;;19.77;2.10;;;15.20;98.00;;;;;;5049316;28;20037;-72
2022/10/06 08:02:55;;;;;;;11.02;1.40;;;15.20;98.10;;;;;;5050195;28;20090;-73
2022/10/06 08:05:21;;;;;;;18.65;2.42;;;15.20;97.90;;;;;;5050280;28;20473;-72
2022/10/06 08:07:47;;;;;;;14.02;1.70;;;15.30;97.80;;;;;;5049700;28;20053;-73
2022/10/06 08:10:12;;;;;;;12.27;1.90;;;15.40;97.60;;;;;;5050379;28;20113;-74
2022/10/06 08:12:39;;;;;;;4.35;1.38;;;15.40;97.70;;;;;;5050066;28;20150;-73
2022/10/06 08:15:10;;;;;;;11.98;1.30;;;15.30;97.80;;;;;;5050225;28;20483;-73
2022/10/06 08:17:37;;;;;;;10.48;2.13;;;15.40;97.70;;;;;;5050151;28;20494;-72
2022/10/06 08:20:10;;;;;;;17.88;1.63;;;15.40;97.50;;;;;;5050491;28;20032;-72
2022/10/06 08:22:38;;;;;;;8.10;1.85;;;15.30;97.50;;;;;;5050170;28;20040;-73
2022/10/06 08:25:08;;;;;;;;;;;15.50;97.50;;;;;;5050641;28;20035;-72
2022/10/06 08:27:36;;;;;;;14.43;2.40;;;15.60;97.40;;;;;;5050061;28;19995;-73
2022/10/06 08:30:04;;;;;;;21.13;2.00;;;15.60;97.20;;;;;;5053941;28;20041;-72
2022/10/06 08:32:30;;;;;;;9.82;1.45;;;15.60;97.10;;;;;;5054212;28;20025;-73
2022/10/06 08:34:56;;;;;;;16.48;2.00;;;15.70;97.20;;;;;;5054392;28;20471;-72
2022/10/06 08:37:26;;;;;;;11.32;1.95;;;15.80;97.00;;;;;;5053860;28;20049;-71
2022/10/06 08:39:53;;;;;;;10.68;1.77;;;15.80;96.70;;;;;;5052820;28;20040;-72
2022/10/06 08:42:38;;;;;;;13.45;1.63;;;16.10;96.30;;;;;;5052619;28;20032;-73
2022/10/06 08:45:27;;;;;;;8.50;1.70;;;16.60;95.80;;;;;;5053451;28;20033;-73
2022/10/06 08:48:06;;;;;;;13.25;1.88;;;17.30;97.30;;;;;;5069148;28;20484;-71
2022/10/06 08:50:40;;;;;;;7.78;1.40;;;17.90;93.60;;;;;;5052506;28;20043;-72
2022/10/06 08:53:28;;;;;;;11.32;1.65;;;18.20;93.50;;;;;;5052912;28;20033;-72
2022/10/06 08:56:09;;;;;;;11.40;1.65;;;19.00;94.50;;;;;;5053662;28;20482;-72
2022/10/06 08:58:45;;;;;;;16.58;2.20;;;19.30;92.40;;;;;;5069272;28;20037;-72
2022/10/06 09:01:14;;;;;;;8.65;1.80;;;19.10;91.00;;;;;;5053490;28;20041;-73
2022/10/06 09:03:44;;;;;;;9.95;2.58;;;19.60;91.00;;;;;;5053464;28;20309;-72
2022/10/06 09:07:07;;;;;;;9.55;1.92;;;20.30;90.20;;;;;;5053336;28;20029;-72
2022/10/06 09:09:57;;;;;;;9.90;2.13;;;20.30;88.30;;;;;;5030977;28;20029;-69
2022/10/06 09:12:26;;;;;;;8.18;1.60;;;21.00;89.80;;;;;;5014222;28;20148;-72
2022/10/06 09:15:07;;;;;;;9.45;2.05;;;22.40;88.70;;;;;;5037445;28;20050;-71
2022/10/06 09:17:48;;;;;;;5.93;1.27;;;22.60;82.90;;;;;;5052095;28;20359;-72
2022/10/06 09:20:26;;;;;;;8.70;2.05;;;23.20;84.70;;;;;;5036247;28;20017;-71
2022/10/06 09:22:55;;;;;;;9.70;2.05;;;22.90;77.50;;;;;;5033323;28;20413;-72
2022/10/06 09:25:27;;;;;;;9.23;1.90;;;23.70;83.50;;;;;;5033290;28;20045;-72
2022/10/06 09:27:58;;;;;;;14.25;1.80;;;22.70;80.20;;;;;;5033443;28;20064;-70
2022/10/06 09:30:25;;;;;;;9.02;2.50;;;22.00;78.60;;;;;;5032740;28;20458;-71
2022/10/06 09:32:57;;;;;;;14.20;1.55;;;22.10;79.80;;;;;;5033614;28;20130;-73
2022/10/06 09:35:26;;;;;;;7.90;1.67;;;22.70;80.50;;;;;;5032737;28;20029;-72
2022/10/06 09:38:02;;;;;;;11.32;2.17;;;23.10;75.20;;;;;;5033168;28;20025;-74
2022/10/06 09:40:48;;;;;;;9.65;2.10;;;23.50;77.60;;;;;;5031758;28;20044;-73
2022/10/06 09:43:27;;;;;;;8.73;1.88;;;23.30;77.70;;;;;;5064851;28;20123;-72
2022/10/06 09:45:56;;;;;;;10.43;1.77;;;24.40;71.50;;;;;;5032647;28;20037;-73
2022/10/06 09:48:23;;;;;;;12.25;1.60;;;25.30;76.00;;;;;;5031389;28;20095;-73
2022/10/06 09:51:12;;;;;;;6.47;1.50;;;25.70;68.10;;;;;;5032516;28;20046;-72
2022/10/06 09:53:39;;;;;;;5.65;1.95;;;25.50;68.70;;;;;;5032040;28;20335;-74
2022/10/06 09:56:17;;;;;;;9.80;1.83;;;25.00;66.40;;;;;;5032768;28;20419;-71
2022/10/06 09:58:55;;;;;;;11.73;1.90;;;25.80;71.00;;;;;;5032703;28;20041;-72
2022/10/06 10:01:22;;;;;;;;;;;26.40;63.80;;;;;;5032852;28;20034;-72
2022/10/06 10:03:51;;;;;;;7.65;1.58;;;25.70;69.90;;;;;;5032607;28;20216;-74
2022/10/06 10:06:27;;;;;;;13.05;2.45;;;27.10;63.00;;;;;;5032547;28;20037;-73
2022/10/06 10:09:15;;;;;;;10.50;1.70;;;25.90;62.30;;;;;;5030945;28;20492;-73
2022/10/06 10:14:25;;;;;;;7.18;1.77;;;27.10;61.20;;;;;;5032051;28;20055;-73
2022/10/06 10:16:51;;;;;;;6.68;2.30;;;27.20;60.60;;;;;;5047892;28;20116;-73
2022/10/06 10:19:31;;;;;;;15.20;1.92;;;28.60;61.70;;;;;;5032111;28;20075;-73
2022/10/06 10:21:58;;;;;;;11.25;2.10;;;27.50;61.10;;;;;;5032034;28;20030;-72
2022/10/06 10:24:54;;;;;;;8.10;1.90;;;27.00;60.80;;;;;;5031918;28;20132;-73
2022/10/06 10:27:52;;;;;;;11.60;2.38;;;26.60;56.60;;;;;;5031747;28;20443;-72
2022/10/06 10:30:18;;;;;;;11.43;1.92;;;27.10;60.00;;;;;;5030944;28;20087;-73
2022/10/06 10:33:16;;;;;;;6.68;1.98;;;26.80;59.10;;;;;;5031999;28;20378;-72
2022/10/06 10:35:45;;;;;;;6.05;1.38;;;26.60;58.40;;;;;;5032038;28;20045;-73
2022/10/06 10:38:18;;;;;;;7.93;1.77;;;26.70;61.40;;;;;;5032486;28;20107;-72
2022/10/06 10:40:56;;;;;;;6.47;1.60;;;26.80;58.60;;;;;;5031719;28;20030;-71
2022/10/06 10:43:48;;;;;;;8.00;1.83;;;28.50;58.80;;;;;;5031635;28;20034;-71
2022/10/06 10:46:18;;;;;;;14.35;1.92;;;29.40;57.50;;;;;;5031683;28;20459;-71
2022/10/06 10:48:57;;;;;;;8.02;1.70;;;28.50;53.20;;;;;;5030858;28;20041;-72
2022/10/06 10:51:30;;;;;;;7.10;1.77;;;27.50;57.20;;;;;;5031555;28;20029;-71
2022/10/06 10:54:13;;;;;;;11.25;1.60;;;28.90;56.30;;;;;;5031743;28;20033;-71
2022/10/06 10:56:40;;;;;;;7.85;1.55;;;28.70;52.30;;;;;;5031423;28;20068;-71
2022/10/06 10:59:18;;;;;;;7.55;1.80;;;27.90;52.90;;;;;;5032191;28;20025;-71
2022/10/06 11:02:03;;;;;;;5.90;1.35;;;26.50;54.20;;;;;;5032075;28;20037;-72
2022/10/06 11:04:29;;;;;;;8.48;1.45;;;26.30;54.40;;;;;;5031516;28;20045;-71
2022/10/06 11:07:20;;;;;;;4.85;1.50;;;26.70;55.00;;;;;;5031667;28;20173;-72
2022/10/06 11:10:19;;;;;;;6.95;1.70;;;27.60;52.70;;;;;;5031286;28;20030;-72
2022/10/06 11:12:57;;;;;;;9.60;2.13;;;27.50;55.30;;;;;;5031461;28;20029;-71
2022/10/06 11:15:42;;;;;;;;;;;28.10;52.10;;;;;;5031391;28;20115;-73
2022/10/06 11:18:29;;;;;;;8.85;1.98;;;28.40;51.80;;;;;;5031056;28;19923;-72
2022/10/06 11:21:02;;;;;;;;;;;27.80;50.10;;;;;;5031460;28;20109;-73
2022/10/06 11:23:46;;;;;;;10.48;1.85;;;27.20;52.00;;;;;;5031094;28;20350;-72
2022/10/06 11:26:36;;;;;;;8.60;1.70;;;26.60;51.60;;;;;;5031786;28;20440;-73
2022/10/06 11:29:08;;;;;;;7.47;1.73;;;26.00;52.70;;;;;;5031960;28;20041;-72
2022/10/06 11:31:50;;;;;;;9.02;1.40;;;27.00;51.50;;;;;;5029689;28;20087;-73
2022/10/06 11:34:16;;;;;;;7.32;1.48;;;27.00;51.90;;;;;;5031135;28;20068;-73
2022/10/06 11:37:18;;;;;;;6.45;1.58;;;26.90;51.60;;;;;;5030890;28;20483;-72
2022/10/06 11:40:19;;;;;;;7.85;1.88;;;25.20;52.30;;;;;;5029658;28;20388;-73
2022/10/06 11:43:18;;;;;;;5.07;1.00;;;25.00;54.10;;;;;;5030668;28;20034;-72
2022/10/06 11:46:02;;;;;;;9.68;1.80;;;23.90;54.90;;;;;;5030552;28;20451;-71
2022/10/06 11:48:30;;;;;;;7.90;1.40;;;22.90;56.50;;;;;;5030527;28;20044;-71
2022/10/06 11:50:59;;;;;;;;;;;22.10;57.30;;;;;;5031080;28;20136;-72
2022/10/06 11:53:31;;;;;;;9.13;1.65;;;22.20;58.70;;;;;;5030535;28;20413;-71
2022/10/06 11:56:15;;;;;;;8.73;1.20;;;22.30;58.60;;;;;;5030969;28;20060;-71
2022/10/06 11:58:53;;;;;;;6.57;1.27;;;21.70;57.90;;;;;;5030334;28;20506;-71
2022/10/06 12:01:33;;;;;;;9.35;1.70;;;21.70;59.60;;;;;;5030594;28;20029;-71
2022/10/06 12:04:08;;;;;;;5.78;1.17;;;21.30;59.30;;;;;;5031617;28;20053;-71
2022/10/06 12:06:46;;;;;;;14.60;1.92;;;21.30;59.80;;;;;;5033435;28;20033;-71
2022/10/06 12:09:30;;;;;;;8.70;1.67;;;21.00;59.90;;;;;;5034702;28;20084;-71
2022/10/06 12:12:00;;;;;;;6.78;1.80;;;20.70;61.50;;;;;;5034537;28;20052;-70
2022/10/06 12:15:03;;;;;;;9.35;1.70;;;20.50;62.80;;;;;;5033985;28;20132;-72
2022/10/06 12:17:40;;;;;;;3.03;1.17;;;21.10;63.50;;;;;;5034303;28;20028;-71
2022/10/06 12:20:22;;;;;;;7.28;1.60;;;21.50;62.80;;;;;;5034724;28;20072;-73
2022/10/06 12:22:52;;;;;;;10.93;2.22;;;21.50;61.30;;;;;;5034438;28;20046;-72
2022/10/06 12:25:33;;;;;;;8.45;1.27;;;21.50;61.10;;;;;;5034320;28;20038;-73
2022/10/06 12:28:01;;;;;;;10.68;1.80;;;21.70;61.00;;;;;;5033082;28;20120;-72
2022/10/06 12:30:41;;;;;;;9.05;1.60;;;21.60;61.20;;;;;;5034199;28;20509;-71
2022/10/06 12:33:16;;;;;;;6.57;1.27;;;21.50;61.50;;;;;;5033048;28;20038;-72
2022/10/06 12:35:43;;;;;;;10.07;1.35;;;21.20;62.20;;;;;;5034144;28;20088;-72
2022/10/06 12:38:27;;;;;;;5.70;1.58;;;21.20;63.50;;;;;;5034594;28;20029;-71
2022/10/06 12:40:56;;;;;;;8.23;1.58;;;21.30;62.90;;;;;;5034001;28;20049;-71
2022/10/06 12:43:22;;;;;;;8.50;1.75;;;21.40;62.90;;;;;;5034244;28;20060;-72
2022/10/06 12:45:54;;;;;;;6.00;1.27;;;21.20;63.00;;;;;;5034064;28;20064;-72
2022/10/06 12:48:50;;;;;;;7.50;1.55;;;21.40;63.00;;;;;;5033957;28;20060;-72
2022/10/06 12:51:37;;;;;;;9.60;1.38;;;21.40;62.40;;;;;;5033764;28;20069;-72
2022/10/06 12:54:08;;;;;;;5.82;1.42;;;21.00;63.10;;;;;;5033546;28;20045;-71
2022/10/06 12:56:42;;;;;;;7.78;1.58;;;21.00;63.30;;;;;;5033606;28;20036;-73
2022/10/06 12:59:26;;;;;;;8.82;1.35;;;21.10;63.60;;;;;;5034051;28;20033;-72
2022/10/06 13:01:55;;;;;;;8.95;1.98;;;20.60;63.80;;;;;;5033504;28;20045;-73
2022/10/06 13:04:42;;;;;;;9.23;2.20;;;20.70;64.40;;;;;;5033441;28;20037;-72
2022/10/06 13:07:44;;;;;;;9.82;1.92;;;20.60;64.00;;;;;;5033296;28;20490;-71
2022/10/06 13:10:13;;;;;;;11.52;1.67;;;20.70;63.30;;;;;;5033434;28;20092;-72
2022/10/06 13:12:46;;;;;;;9.88;1.45;;;20.70;63.10;;;;;;5033356;28;20483;-72
2022/10/06 13:15:29;;;;;;;10.98;1.63;;;20.70;63.00;;;;;;5031974;28;20142;-72
2022/10/06 13:18:02;;;;;;;6.03;1.23;;;20.70;62.80;;;;;;5065484;28;20152;-73
2022/10/06 13:20:36;;;;;;;6.80;1.58;;;20.70;64.00;;;;;;5032996;28;20326;-72
2022/10/06 13:23:14;;;;;;;9.13;2.22;;;20.90;64.00;;;;;;5033481;28;20017;-72
2022/10/06 13:25:41;;;;;;;;;;;20.40;63.40;;;;;;5033823;28;20062;-72